Time;durP1;ratioP1;P1;durP2;ratioP2;P2;SDS_P1;SDS_P2;PMS_P1;PMS_P2;Temp;Humidity;BMP_temperature;BMP_pressure;BME280_temperature;BME280_humidity;BME280_pressure;Samples;Min_cycle;Max_cycle;Signal;HPM_P1;HPM_P2
2022/08/21 00:00:27;;;;;;;4.47;3.85;;;;;;;21.75;52.11;100196.94;10394877;28;20055;-72
2022/08/21 00:05:31;;;;;;;6.18;4.60;;;;;;;21.79;54.30;100186.56;10392350;28;20148;-72
2022/08/21 00:10:32;;;;;;;;;;;;;;;21.85;52.50;100186.56;10399455;28;20514;-72
2022/08/21 00:15:36;;;;;;;6.55;4.18;;;;;;;21.85;51.65;100175.75;10389040;28;20363;-72
2022/08/21 00:20:39;;;;;;;4.88;4.40;;;;;;;21.80;53.60;100161.97;10379388;28;20065;-71
2022/08/21 00:25:42;;;;;;;5.55;4.57;;;;;;;21.80;53.72;100166.53;10391944;28;20065;-72
2022/08/21 00:30:44;;;;;;;6.03;5.03;;;;;;;21.81;54.31;100160.94;10391995;28;20049;-70
2022/08/21 00:35:45;;;;;;;5.50;4.55;;;;;;;21.78;53.06;100165.91;10393204;28;20068;-73
2022/08/21 00:40:54;;;;;;;6.63;5.15;;;;;;;21.59;55.48;100160.16;10399119;28;20430;-72
2022/08/21 00:45:56;;;;;;;5.85;4.95;;;;;;;21.44;55.24;100165.66;10388021;28;20108;-73
2022/08/21 00:51:08;;;;;;;7.43;4.93;;;;;;;21.60;55.48;100166.41;10389783;28;21162;-72
2022/08/21 00:56:11;;;;;;;5.15;4.18;;;;;;;21.61;54.50;100159.97;10372790;28;20053;-72
2022/08/21 01:01:13;;;;;;;7.05;5.18;;;;;;;21.64;54.98;100159.56;10390663;28;20699;-70
2022/08/21 01:06:15;;;;;;;5.50;4.30;;;;;;;21.65;55.72;100167.50;10389440;28;20053;-69
2022/08/21 01:11:17;;;;;;;5.45;4.85;;;;;;;21.65;55.58;100167.50;10386142;28;20499;-73
2022/08/21 01:16:21;;;;;;;5.32;4.82;;;;;;;21.62;53.97;100165.19;10390750;28;20057;-72
2022/08/21 01:21:25;;;;;;;6.45;5.47;;;;;;;21.62;55.69;100172.47;10387001;28;20053;-73
2022/08/21 01:26:32;;;;;;;6.43;4.80;;;;;;;21.57;54.84;100169.53;10390278;28;20057;-72
2022/08/21 01:31:35;;;;;;;6.30;5.15;;;;;;;21.49;56.46;100170.47;10388571;28;20045;-74
2022/08/21 01:36:36;;;;;;;6.05;5.35;;;;;;;21.37;56.72;100176.41;10373771;28;20053;-72
2022/08/21 01:41:37;;;;;;;5.85;4.85;;;;;;;21.39;56.88;100178.09;10386552;28;20099;-71
2022/08/21 01:46:39;;;;;;;7.35;4.68;;;;;;;21.43;56.24;100172.09;10374906;28;20231;-72
2022/08/21 01:51:41;;;;;;;6.95;5.05;;;;;;;21.43;57.70;100172.09;10385972;28;20048;-71
2022/08/21 01:56:46;;;;;;;5.00;4.57;;;;;;;21.37;56.57;100178.31;10407291;28;20142;-72
2022/08/21 02:01:48;;;;;;;5.60;3.75;;;;;;;21.25;57.08;100163.63;10394952;28;20435;-71
2022/08/21 02:06:49;;;;;;;4.78;4.22;;;;;;;21.27;57.61;100167.81;10378915;28;20049;-72
2022/08/21 02:11:51;;;;;;;7.28;5.65;;;;;;;21.21;56.51;100170.47;10397784;28;20053;-71
2022/08/21 02:16:53;;;;;;;7.90;4.78;;;;;;;21.16;57.27;100168.34;10378623;28;20112;-72
2022/08/21 02:22:10;;;;;;;7.85;5.00;;;;;;;21.22;57.79;100158.63;10393661;28;20068;-72
2022/08/21 02:27:12;;;;;;;4.95;4.45;;;;;;;21.14;57.84;100149.59;10398162;28;20120;-71
2022/08/21 02:32:13;;;;;;;6.50;4.88;;;;;;;21.21;57.90;100156.94;10392109;28;20060;-71
2022/08/21 02:37:16;;;;;;;7.57;5.17;;;;;;;21.21;56.98;100151.50;10395451;28;20107;-72
2022/08/21 02:42:17;;;;;;;7.15;5.15;;;;;;;21.15;57.00;100151.28;10392896;28;20052;-71
2022/08/21 02:47:19;;;;;;;5.63;5.10;;;;;;;21.15;58.07;100153.97;10396021;28;20060;-72
2022/08/21 02:52:21;;;;;;;6.55;5.32;;;;;;;21.09;58.81;100149.34;10390093;28;20656;-72
2022/08/21 02:57:23;;;;;;;7.32;5.53;;;;;;;20.96;57.94;100155.47;10380682;28;20128;-72
2022/08/21 03:02:24;;;;;;;8.82;6.47;;;;;;;20.98;59.63;100150.69;10381246;28;20071;-72
2022/08/21 03:07:27;;;;;;;7.20;5.13;;;;;;;20.99;58.80;100155.09;10392354;28;20045;-72
2022/08/21 03:12:28;;;;;;;6.88;4.45;;;;;;;21.02;58.27;100145.75;10385527;28;20150;-72
2022/08/21 03:17:30;;;;;;;5.85;4.88;;;;;;;21.03;59.03;100139.28;10388279;28;20052;-72
2022/08/21 03:22:32;;;;;;;7.25;5.05;;;;;;;20.73;57.47;100139.44;10390998;28;20132;-73
2022/08/21 03:27:34;;;;;;;5.05;4.20;;;;;;;20.72;58.30;100143.19;10395178;28;20159;-72
2022/08/21 03:32:36;;;;;;;5.13;4.63;;;;;;;20.63;57.54;100138.91;10388901;28;20037;-72
2022/08/21 03:37:37;;;;;;;5.53;5.03;;;;;;;20.58;59.24;100161.09;10399986;28;20041;-72
2022/08/21 03:42:39;;;;;;;6.38;5.78;;;;;;;20.51;59.38;100159.34;10388030;28;20057;-73
2022/08/21 03:48:10;;;;;;;6.53;5.93;;;;;;;20.33;60.89;100160.59;10406059;28;20064;-72
2022/08/21 03:53:14;;;;;;;6.63;5.80;;;;;;;20.20;60.70;100163.97;10383154;28;20044;-71
2022/08/21 03:58:20;;;;;;;6.60;5.22;;;;;;;20.03;60.17;100166.06;10397862;28;20387;-71
2022/08/21 04:03:21;;;;;;;;;;;;;;;19.94;60.29;100177.97;10397085;28;20152;-71
2022/08/21 04:08:23;;;;;;;6.28;5.68;;;;;;;19.97;61.67;100188.41;10389850;28;20016;-73
2022/08/21 04:13:27;;;;;;;6.82;5.60;;;;;;;19.91;61.41;100186.47;10386971;28;20061;-72
2022/08/21 04:18:29;;;;;;;9.25;6.00;;;;;;;19.73;61.60;100182.22;10386616;28;20049;-71
2022/08/21 04:23:30;;;;;;;9.02;5.18;;;;;;;19.86;61.38;100196.97;10390917;28;20496;-71
2022/08/21 04:28:32;;;;;;;8.57;6.25;;;;;;;19.78;61.86;100201.44;10388808;28;20060;-72
2022/08/21 04:33:34;;;;;;;6.78;6.18;;;;;;;19.73;62.72;100203.81;10388358;28;20136;-71
2022/08/21 04:38:35;;;;;;;8.88;7.18;;;;;;;19.66;62.01;100208.28;10386213;28;21445;-71
2022/08/21 04:43:39;;;;;;;5.37;4.87;;;;;;;19.73;61.25;100209.22;10387633;28;20179;-71
2022/08/21 04:48:40;;;;;;;6.10;5.50;;;;;;;19.72;61.93;100204.00;10378555;28;20640;-71
2022/08/21 04:53:48;;;;;;;8.20;5.25;;;;;;;19.67;61.43;100209.97;10388251;28;20063;-72
2022/08/21 04:58:57;;;;;;;8.57;6.20;;;;;;;19.69;61.19;100217.88;10390746;28;20611;-73
2022/08/21 05:04:01;;;;;;;7.28;5.72;;;;;;;19.60;61.87;100225.22;10387754;28;20069;-72
2022/08/21 05:09:04;;;;;;;8.43;5.38;;;;;;;19.52;61.32;100223.44;10381864;28;20054;-70
2022/08/21 05:14:05;;;;;;;7.22;5.55;;;;;;;19.51;61.28;100229.03;10384906;28;20207;-71
2022/08/21 05:19:07;;;;;;;7.78;5.82;;;;;;;19.66;61.30;100243.38;10387659;28;20059;-71
2022/08/21 05:24:10;;;;;;;6.60;5.97;;;;;;;19.59;60.09;100246.00;10385051;28;20051;-72
2022/08/21 05:29:12;;;;;;;6.72;5.97;;;;;;;19.54;60.13;100247.56;10390363;28;20555;-71
2022/08/21 05:34:18;;;;;;;7.25;6.55;;;;;;;19.58;60.16;100248.88;10375443;28;20060;-72
2022/08/21 05:39:19;;;;;;;9.63;7.13;;;;;;;19.50;60.24;100251.63;10414340;28;20075;-75
2022/08/21 05:44:21;;;;;;;10.65;7.93;;;;;;;19.37;60.59;100236.91;10405611;28;20154;-74
2022/08/21 05:49:22;;;;;;;7.40;6.60;;;;;;;19.49;60.49;100244.56;10394738;28;20139;-74
2022/08/21 05:54:24;;;;;;;8.43;7.50;;;;;;;19.65;60.07;100249.81;10389524;28;20108;-75
2022/08/21 05:59:27;;;;;;;8.00;7.22;;;;;;;19.60;60.25;100253.03;10386204;28;20743;-72
2022/08/21 06:04:29;;;;;;;10.50;9.17;;;;;;;19.61;60.91;100249.34;10388945;28;20112;-74
2022/08/21 06:09:30;;;;;;;9.15;8.13;;;;;;;19.66;61.97;100253.34;10395620;28;20108;-74
2022/08/21 06:14:32;;;;;;;8.55;7.53;;;;;;;19.88;60.52;100248.97;10374194;28;20057;-72
2022/08/21 06:19:35;;;;;;;9.82;7.50;;;;;;;20.16;59.62;100256.41;10385571;28;20048;-72
2022/08/21 06:24:36;;;;;;;8.55;7.53;;;;;;;20.37;58.84;100256.53;10389982;28;20063;-71
2022/08/21 06:29:38;;;;;;;8.80;6.78;;;;;;;20.53;58.76;100268.16;10387342;28;20087;-75
2022/08/21 06:34:45;;;;;;;9.15;7.32;;;;;;;20.72;58.44;100258.66;10387926;28;20052;-76
2022/08/21 06:39:46;;;;;;;7.35;6.65;;;;;;;20.69;58.00;100254.44;10383384;28;20058;-73
2022/08/21 06:44:50;;;;;;;9.65;8.23;;;;;;;20.66;59.95;100258.34;10391384;28;20483;-72
2022/08/21 06:49:51;;;;;;;9.38;7.72;;;;;;;20.78;59.75;100247.88;10382998;28;20056;-75
2022/08/21 06:54:53;;;;;;;7.78;7.07;;;;;;;21.05;59.79;100261.72;10388652;28;20066;-73
2022/08/21 06:59:55;;;;;;;7.85;7.05;;;;;;;21.21;57.75;100243.53;10386869;28;20696;-75
2022/08/21 07:04:56;;;;;;;8.13;7.43;;;;;;;21.33;57.68;100241.97;10374662;28;20068;-74
2022/08/21 07:09:57;;;;;;;7.97;7.28;;;;;;;21.48;57.71;100253.59;10378018;28;20076;-73
2022/08/21 07:14:59;;;;;;;8.90;6.93;;;;;;;21.61;57.39;100249.34;10380047;28;20114;-78
2022/08/21 07:20:00;;;;;;;9.05;7.22;;;;;;;21.79;57.45;100255.09;10370594;28;20067;-75
2022/08/21 07:25:04;;;;;;;8.52;7.35;;;;;;;21.83;56.99;100250.97;10373959;28;20049;-75
2022/08/21 07:30:06;;;;;;;8.27;6.65;;;;;;;22.09;55.94;100238.63;10399893;28;20111;-73
2022/08/21 07:35:07;;;;;;;7.75;6.95;;;;;;;22.12;56.07;100243.66;10387544;28;20059;-75
2022/08/21 07:40:09;;;;;;;8.52;7.63;;;;;;;22.33;54.92;100236.50;10384891;28;20048;-71
2022/08/21 07:45:12;;;;;;;7.95;7.25;;;;;;;22.62;55.65;100235.34;10376814;28;20041;-73
2022/08/21 07:50:15;;;;;;;8.65;5.60;;;;;;;22.88;54.22;100234.63;10390995;28;20066;-71
2022/08/21 07:55:19;;;;;;;6.30;5.70;;;;;;;23.19;53.59;100221.53;10383465;28;20089;-73
2022/08/21 08:00:24;;;;;;;6.85;6.15;;;;;;;23.47;52.62;100224.88;10359409;28;20817;-74
2022/08/21 08:05:27;;;;;;;7.78;6.00;;;;;;;23.64;51.85;100222.59;10367972;28;20244;-75
2022/08/21 08:10:29;;;;;;;7.85;6.57;;;;;;;23.85;50.15;100207.13;10389159;28;20053;-73
2022/08/21 08:15:31;;;;;;;7.93;5.57;;;;;;;23.99;50.69;100214.19;10371276;28;20044;-74
2022/08/21 08:20:37;;;;;;;8.27;7.40;;;;;;;24.12;49.59;100218.75;10372153;28;20053;-73
2022/08/21 08:25:40;;;;;;;8.38;6.90;;;;;;;24.10;50.58;100214.59;10386907;28;20048;-74
2022/08/21 08:30:42;;;;;;;8.80;6.80;;;;;;;24.29;50.46;100218.28;10385078;28;20523;-74
2022/08/21 08:35:47;;;;;;;7.93;5.85;;;;;;;24.45;50.59;100206.09;10373905;28;20068;-76
2022/08/21 08:41:18;;;;;;;6.72;5.88;;;;;;;24.74;49.08;100209.31;10377023;28;20053;-75
2022/08/21 08:46:34;;;;;;;10.02;7.28;;;;;;;25.06;48.29;100196.56;10379998;28;20055;-76
2022/08/21 08:51:42;;;;;;;7.03;5.57;;;;;;;25.15;48.77;100194.41;10403010;28;20108;-73
2022/08/21 08:56:44;;;;;;;6.38;5.20;;;;;;;25.30;47.30;100183.22;10385124;28;20145;-73
2022/08/21 09:01:46;;;;;;;;;;;;;;;25.65;47.73;100188.97;10366607;28;20057;-74
2022/08/21 09:06:54;;;;;;;5.63;4.70;;;;;;;26.07;46.13;100175.53;10391569;28;20065;-73
2022/08/21 09:12:10;;;;;;;8.13;4.53;;;;;;;26.55;44.53;100164.88;10397505;28;20063;-74
2022/08/21 09:17:23;;;;;;;5.57;4.80;;;;;;;26.55;42.21;100165.69;10390508;28;20052;-74
2022/08/21 09:22:49;;;;;;;7.97;5.57;;;;;;;26.87;41.46;100159.19;10390137;28;20054;-72
2022/08/21 09:27:51;;;;;;;5.82;4.03;;;;;;;26.58;40.62;100159.78;10388370;28;20167;-74
2022/08/21 09:32:52;;;;;;;7.50;3.80;;;;;;;26.16;41.20;100156.16;10391138;28;20877;-76
2022/08/21 09:38:02;;;;;;;6.88;4.05;;;;;;;26.21;40.13;100151.69;10389678;28;20053;-74
2022/08/21 09:43:21;;;;;;;7.07;3.05;;;;;;;26.74;40.07;100158.31;10377007;28;20290;-75
2022/08/21 09:48:25;;;;;;;5.97;3.08;;;;;;;27.19;38.94;100146.06;10392995;28;20128;-76
2022/08/21 09:53:34;;;;;;;6.43;2.70;;;;;;;27.94;38.30;100149.97;10394493;28;20045;-75
2022/08/21 09:58:38;;;;;;;7.30;3.90;;;;;;;28.28;37.54;100141.09;10388324;28;20053;-74
2022/08/21 10:03:40;;;;;;;5.22;2.75;;;;;;;28.54;35.59;100137.78;10378557;28;20488;-77
2022/08/21 10:08:41;;;;;;;5.03;3.17;;;;;;;29.15;34.89;100137.19;10385915;28;20191;-78
2022/08/21 10:14:09;;;;;;;5.23;2.60;;;;;;;30.17;32.29;100126.03;10384335;28;20054;-75
2022/08/21 10:19:30;;;;;;;5.95;2.65;;;;;;;30.08;32.80;100122.91;10402445;28;20052;-75
2022/08/21 10:24:44;;;;;;;6.20;2.50;;;;;;;31.05;29.46;100111.28;10406185;28;20056;-75
2022/08/21 10:29:54;;;;;;;3.88;2.75;;;;;;;29.90;31.01;100102.13;10383381;28;20305;-74
2022/08/21 10:35:08;;;;;;;5.82;3.00;;;;;;;29.21;31.56;100113.47;10404059;28;20199;-75
2022/08/21 10:40:21;;;;;;;8.23;2.88;;;;;;;28.68;33.02;100118.34;10396546;28;21808;-76
2022/08/21 10:46:02;;;;;;;6.85;3.20;;;;;;;30.55;30.52;100102.31;10378887;28;20041;-75
2022/08/21 10:51:13;;;;;;;4.32;2.22;;;;;;;32.50;27.85;100099.84;10405071;28;20040;-77
2022/08/21 10:56:38;;;;;;;3.70;2.30;;;;;;;32.85;27.52;100101.03;10398265;28;20045;-76
2022/08/21 11:01:59;;;;;;;5.40;2.75;;;;;;;37.58;21.57;100098.44;10393990;28;20048;-77
2022/08/21 11:07:19;;;;;;;4.40;2.10;;;;;;;36.65;22.72;100087.31;10392258;28;20049;-77
2022/08/21 11:12:42;;;;;;;5.50;2.00;;;;;;;39.87;19.61;100076.69;10395319;28;20067;-75
2022/08/21 11:17:55;;;;;;;4.30;2.20;;;;;;;42.12;16.91;100072.84;10408348;28;20072;-75
2022/08/21 11:23:14;;;;;;;4.40;2.45;;;;;;;42.94;14.75;100062.22;10394265;28;20097;-77
2022/08/21 11:28:21;;;;;;;4.90;2.17;;;;;;;43.42;15.71;100067.09;10394204;28;20472;-77
2022/08/21 11:33:42;;;;;;;4.30;2.08;;;;;;;42.64;15.01;100059.59;10399397;28;20100;-77
2022/08/21 11:38:56;;;;;;;4.07;1.80;;;;;;;43.51;15.52;100055.78;10380086;28;20060;-77
2022/08/21 11:44:34;;;;;;;6.07;2.40;;;;;;;38.41;19.78;100041.13;10389011;28;20048;-76
2022/08/21 11:49:38;;;;;;;3.28;1.70;;;;;;;39.72;18.60;100025.88;10385317;28;20044;-78
2022/08/21 11:55:17;;;;;;;4.25;1.90;;;;;;;41.54;17.10;100041.00;10399892;28;20131;-78
2022/08/21 12:00:38;;;;;;;4.18;1.92;;;;;;;39.36;19.08;100034.44;10390980;28;20052;-75
2022/08/21 12:05:44;;;;;;;4.13;1.95;;;;;;;37.64;21.02;100025.03;10379131;28;20134;-78
2022/08/21 12:10:58;;;;;;;4.55;2.13;;;;;;;36.45;21.74;100017.25;10399601;28;20176;-75
2022/08/21 12:16:14;;;;;;;3.42;1.90;;;;;;;35.64;22.59;100022.81;10393569;28;20212;-75
2022/08/21 12:21:28;;;;;;;2.78;1.90;;;;;;;35.66;23.12;100015.88;10391910;28;20048;-76
2022/08/21 12:26:47;;;;;;;4.38;2.13;;;;;;;34.45;22.87;100017.66;10391598;28;20041;-74
2022/08/21 12:32:05;;;;;;;4.03;1.45;;;;;;;33.47;23.98;100021.78;10386991;28;20683;-77
2022/08/21 12:37:34;;;;;;;5.63;2.10;;;;;;;33.34;23.41;100016.88;10383928;28;20803;-77
2022/08/21 12:42:46;;;;;;;4.53;2.43;;;;;;;33.70;24.49;100011.19;10384962;28;20140;-77
2022/08/21 12:48:25;;;;;;;6.05;2.05;;;;;;;32.86;24.12;100002.63;10392260;28;20055;-77
2022/08/21 12:53:47;;;;;;;2.58;1.48;;;;;;;32.04;26.61;99998.72;10374153;28;20233;-75
2022/08/21 12:58:53;;;;;;;3.55;1.70;;;;;;;32.91;24.54;100002.63;10368038;28;20617;-76
2022/08/21 13:04:00;;;;;;;6.13;2.15;;;;;;;32.46;25.07;100005.13;10378573;28;20067;-76
2022/08/21 13:09:10;;;;;;;3.27;1.73;;;;;;;32.83;24.46;99997.69;10388941;28;20053;-77
2022/08/21 13:14:33;;;;;;;4.00;2.15;;;;;;;32.83;24.48;99994.91;10394269;28;20269;-76
2022/08/21 13:19:41;;;;;;;3.53;1.80;;;;;;;32.03;24.51;99997.06;10368149;28;21056;-80
2022/08/21 13:24:42;;;;;;;4.20;2.20;;;;;;;31.92;26.17;99989.06;10388854;28;20045;-75
2022/08/21 13:29:44;;;;;;;5.45;2.20;;;;;;;32.10;25.00;99984.94;10389152;28;20120;-77
2022/08/21 13:34:54;;;;;;;4.18;1.73;;;;;;;32.34;23.90;99980.63;10376208;28;20057;-75
2022/08/21 13:39:55;;;;;;;10.05;3.05;;;;;;;32.05;24.69;99972.88;10393617;28;20061;-74
2022/08/21 13:44:57;;;;;;;2.28;1.65;;;;;;;32.13;24.08;99973.44;10383808;28;20049;-76
2022/08/21 13:49:59;;;;;;;;;;;;;;;32.33;24.44;99973.44;10391505;28;20057;-74
2022/08/21 13:55:15;;;;;;;4.05;2.00;;;;;;;32.34;24.18;99975.09;10401879;28;20023;-75
2022/08/21 14:00:26;;;;;;;4.63;1.98;;;;;;;31.71;25.15;99958.75;10396069;28;20049;-75
2022/08/21 14:05:31;;;;;;;5.07;3.00;;;;;;;31.64;25.84;99961.75;10399130;28;20063;-76
2022/08/21 14:10:40;;;;;;;5.32;2.15;;;;;;;31.65;25.32;99955.16;10402528;28;20068;-76
2022/08/21 14:15:43;;;;;;;4.43;1.80;;;;;;;31.62;25.06;99947.47;10391540;28;20199;-77
2022/08/21 14:20:45;;;;;;;4.07;1.50;;;;;;;31.55;25.17;99949.63;10394185;28;20530;-76
2022/08/21 14:25:47;;;;;;;4.03;1.88;;;;;;;30.92;25.77;99939.41;10390736;28;20194;-76
2022/08/21 14:30:48;;;;;;;4.10;1.95;;;;;;;30.68;26.58;99945.31;10392476;28;20143;-79
2022/08/21 14:35:54;;;;;;;4.05;1.52;;;;;;;30.88;26.49;99938.28;10399103;28;20055;-76
2022/08/21 14:41:00;;;;;;;3.30;1.90;;;;;;;30.85;26.21;99933.31;10380469;28;20615;-75
2022/08/21 14:46:01;;;;;;;3.13;1.90;;;;;;;30.79;26.23;99926.13;10376883;28;20048;-77
2022/08/21 14:51:02;;;;;;;4.13;2.30;;;;;;;30.73;26.27;99929.97;10394719;28;20055;-75
2022/08/21 14:56:04;;;;;;;4.20;2.63;;;;;;;30.71;26.62;99929.41;10395030;28;20068;-76
2022/08/21 15:01:07;;;;;;;;;;;;;;;30.28;25.70;99919.19;10393786;28;20052;-75
2022/08/21 15:06:10;;;;;;;3.78;2.10;;;;;;;30.22;26.94;99914.75;10396143;28;19928;-79
2022/08/21 15:11:16;;;;;;;3.17;1.63;;;;;;;30.05;26.87;99920.38;10390469;28;20443;-78
2022/08/21 15:16:38;;;;;;;3.83;2.00;;;;;;;30.05;26.75;99914.06;10390233;28;20044;-77
2022/08/21 15:21:39;;;;;;;5.80;2.00;;;;;;;29.96;26.38;99910.97;10389304;28;20078;-78
2022/08/21 15:26:41;;;;;;;2.40;1.30;;;;;;;29.97;26.74;99918.94;10395007;28;20774;-76
2022/08/21 15:31:59;;;;;;;;;;;;;;;29.90;26.32;99926.53;10396071;28;20078;-77
2022/08/21 15:37:00;;;;;;;3.97;1.40;;;;;;;29.84;27.00;99919.34;10396376;28;19924;-77
2022/08/21 15:42:04;;;;;;;4.15;1.38;;;;;;;29.75;26.63;99910.72;10391757;28;20061;-78
2022/08/21 15:47:17;;;;;;;3.83;1.45;;;;;;;29.73;26.27;99918.41;10389736;28;20079;-77
2022/08/21 15:52:21;;;;;;;1.88;1.00;;;;;;;29.54;26.40;99908.88;10392032;28;20047;-76
2022/08/21 15:57:24;;;;;;;3.58;2.08;;;;;;;29.28;26.83;99903.09;10393693;28;20063;-77
2022/08/21 16:02:30;;;;;;;3.00;1.30;;;;;;;29.29;26.79;99907.50;10389097;28;20502;-79
2022/08/21 16:07:31;;;;;;;2.38;1.20;;;;;;;28.99;26.90;99902.44;10398259;28;20059;-77
2022/08/21 16:12:38;;;;;;;2.63;1.60;;;;;;;28.95;27.07;99907.59;10392095;28;20057;-77
2022/08/21 16:17:43;;;;;;;4.00;1.55;;;;;;;28.82;28.20;99913.44;10391210;28;20053;-76
2022/08/21 16:22:45;;;;;;;3.25;1.17;;;;;;;28.67;28.10;99906.66;10388023;28;20590;-76
2022/08/21 16:27:50;;;;;;;3.53;1.30;;;;;;;28.52;27.66;99893.53;10389839;28;20044;-78
2022/08/21 16:32:56;;;;;;;3.45;1.30;;;;;;;28.49;27.92;99891.31;10392516;28;20132;-77
2022/08/21 16:37:58;;;;;;;3.28;1.13;;;;;;;28.30;29.09;99887.19;10389738;28;20053;-77
2022/08/21 16:43:00;;;;;;;1.90;1.20;;;;;;;28.25;28.94;99887.94;10377625;28;20052;-76
2022/08/21 16:48:05;;;;;;;4.03;1.95;;;;;;;28.16;29.51;99890.25;10395184;28;20503;-77
2022/08/21 16:53:07;;;;;;;2.85;1.58;;;;;;;28.00;29.31;99882.91;10397327;28;20112;-76
2022/08/21 16:58:31;;;;;;;2.60;1.08;;;;;;;27.90;29.08;99885.41;10380897;28;20053;-77
2022/08/21 17:03:41;;;;;;;2.65;1.60;;;;;;;27.77;29.04;99884.63;10403368;28;20571;-77
2022/08/21 17:08:43;;;;;;;3.45;1.75;;;;;;;27.68;29.71;99880.66;10372640;28;20060;-75
2022/08/21 17:13:44;;;;;;;;;;;;;;;27.57;29.64;99884.28;10388449;28;20048;-74
2022/08/21 17:18:46;;;;;;;2.13;1.48;;;;;;;27.39;30.11;99869.75;10389093;28;19924;-76
2022/08/21 17:23:52;;;;;;;3.83;1.63;;;;;;;27.30;30.07;99871.19;10377620;28;20059;-74
2022/08/21 17:28:53;;;;;;;2.85;1.30;;;;;;;27.19;29.58;99874.75;10376507;28;20057;-75
2022/08/21 17:33:55;;;;;;;1.93;0.80;;;;;;;27.09;30.30;99884.41;10399702;28;20044;-74
2022/08/21 17:38:57;;;;;;;2.78;1.52;;;;;;;26.94;30.17;99867.72;10399173;28;20565;-73
2022/08/21 17:44:05;;;;;;;2.35;1.38;;;;;;;26.87;29.86;99861.56;10399437;28;20040;-76
2022/08/21 17:49:07;;;;;;;3.00;1.45;;;;;;;26.76;30.88;99861.34;10371496;28;20052;-76
2022/08/21 17:54:09;;;;;;;1.83;1.38;;;;;;;26.67;30.62;99864.69;10394296;28;20183;-74
2022/08/21 17:59:11;;;;;;;3.03;1.23;;;;;;;26.53;30.65;99858.59;10396099;28;20194;-77
2022/08/21 18:04:13;;;;;;;2.65;1.05;;;;;;;26.48;30.58;99863.94;10391791;28;20146;-75
2022/08/21 18:09:14;;;;;;;3.03;1.27;;;;;;;26.37;29.88;99873.81;10396440;28;20065;-76
2022/08/21 18:14:15;;;;;;;3.83;1.92;;;;;;;26.20;30.35;99863.59;10391589;28;20298;-72
2022/08/21 18:19:20;;;;;;;4.60;1.13;;;;;;;26.18;31.11;99876.66;10389401;28;20370;-74
2022/08/21 18:24:22;;;;;;;2.47;1.55;;;;;;;26.03;30.67;99881.72;10390885;28;20468;-74
2022/08/21 18:29:24;;;;;;;4.00;1.95;;;;;;;25.98;30.67;99887.03;10388230;28;20234;-74
2022/08/21 18:34:30;;;;;;;3.35;1.38;;;;;;;25.77;30.83;99894.66;10386801;28;20075;-72
2022/08/21 18:39:32;;;;;;;2.65;1.00;;;;;;;25.79;31.13;99905.34;10378264;28;20067;-71
2022/08/21 18:44:39;;;;;;;4.10;1.27;;;;;;;25.70;31.18;99902.94;10397955;28;20056;-71
2022/08/21 18:49:41;;;;;;;3.38;1.38;;;;;;;25.62;31.07;99910.63;10396076;28;20151;-74
2022/08/21 18:54:43;;;;;;;4.00;1.40;;;;;;;25.48;32.38;99920.88;10373097;28;20068;-73
2022/08/21 18:59:45;;;;;;;4.80;1.50;;;;;;;25.32;31.62;99916.88;10383630;28;20056;-73
2022/08/21 19:04:46;;;;;;;2.85;1.27;;;;;;;25.31;32.58;99926.94;10359347;28;20922;-73
2022/08/21 19:09:48;;;;;;;2.50;1.40;;;;;;;25.29;32.12;99918.13;10379328;28;20061;-73
2022/08/21 19:15:16;;;;;;;3.33;1.33;;;;;;;25.23;31.86;99919.03;10378802;28;20423;-74
2022/08/21 19:20:24;;;;;;;3.95;1.95;;;;;;;25.11;33.36;99937.22;10378959;28;21165;-72
2022/08/21 19:25:27;;;;;;;2.72;1.65;;;;;;;25.01;33.84;99930.41;10367323;28;20065;-74
2022/08/21 19:30:44;;;;;;;3.80;1.50;;;;;;;24.98;33.27;99943.63;10382831;28;20258;-75
2022/08/21 19:35:48;;;;;;;4.28;1.23;;;;;;;24.94;33.48;99945.16;10369042;28;20049;-75
2022/08/21 19:41:12;;;;;;;4.05;1.55;;;;;;;24.81;33.74;99937.94;10382413;28;20431;-74
2022/08/21 19:46:21;;;;;;;6.35;1.15;;;;;;;24.68;33.29;99934.31;10378267;28;20045;-74
2022/08/21 19:51:22;;;;;;;2.03;1.05;;;;;;;24.67;34.19;99943.50;10373867;28;20045;-73
2022/08/21 19:56:27;;;;;;;3.25;0.88;;;;;;;24.49;34.47;99935.28;10381751;28;20405;-74
2022/08/21 20:01:29;;;;;;;2.20;1.25;;;;;;;24.38;34.45;99945.00;10371250;28;20041;-73
2022/08/21 20:06:33;;;;;;;1.80;1.02;;;;;;;24.26;34.50;99942.19;10385286;28;20130;-73
2022/08/21 20:11:44;;;;;;;2.97;0.80;;;;;;;24.32;34.57;99944.00;10397036;28;20048;-72
2022/08/21 20:16:47;;;;;;;2.50;0.90;;;;;;;24.29;34.24;99946.31;10377330;28;20063;-73
2022/08/21 20:21:53;;;;;;;2.53;1.30;;;;;;;24.29;34.54;99944.47;10392883;28;20053;-75
2022/08/21 20:26:57;;;;;;;3.22;0.90;;;;;;;24.21;34.08;99950.16;10376877;28;20060;-75
2022/08/21 20:31:59;;;;;;;2.50;0.80;;;;;;;24.12;34.60;99946.03;10386510;28;20103;-74
2022/08/21 20:37:00;;;;;;;1.40;0.60;;;;;;;23.94;34.19;99939.47;10371110;28;20187;-74
2022/08/21 20:42:07;;;;;;;1.48;0.85;;;;;;;23.88;36.28;99953.91;10362863;28;20566;-75
2022/08/21 20:47:09;;;;;;;2.03;1.00;;;;;;;23.72;34.63;99940.81;10386697;28;20041;-73
2022/08/21 20:52:14;;;;;;;2.08;0.73;;;;;;;23.64;38.54;99958.22;10363253;28;20075;-73
2022/08/21 20:57:19;;;;;;;2.90;1.10;;;;;;;23.69;39.23;99963.00;10366291;28;20053;-73
2022/08/21 21:02:44;;;;;;;2.13;0.57;;;;;;;23.70;37.40;99959.22;10389326;28;20073;-74
2022/08/21 21:08:10;;;;;;;1.00;0.73;;;;;;;23.62;37.23;99958.44;10392475;28;20873;-72
2022/08/21 21:13:43;;;;;;;1.83;0.80;;;;;;;23.57;37.00;99958.25;10383144;28;20171;-73
2022/08/21 21:18:53;;;;;;;1.63;1.17;;;;;;;23.49;37.16;99969.34;10351358;28;20190;-72
2022/08/21 21:24:19;;;;;;;3.47;0.90;;;;;;;23.37;38.02;99971.06;10386774;28;20080;-72
2022/08/21 21:29:29;;;;;;;1.27;0.77;;;;;;;23.17;38.67;99961.13;10390338;28;20048;-71
2022/08/21 21:34:37;;;;;;;3.08;1.23;;;;;;;23.17;38.83;99969.25;10396242;28;20124;-74
2022/08/21 21:39:51;;;;;;;5.30;1.15;;;;;;;23.02;40.37;99957.78;10396298;28;20121;-72
2022/08/21 21:45:08;;;;;;;1.90;1.08;;;;;;;23.01;39.41;99975.13;10391243;28;20064;-73
2022/08/21 21:50:19;;;;;;;1.50;0.70;;;;;;;22.90;40.54;99985.56;10380330;28;20160;-74
2022/08/21 21:55:52;;;;;;;1.85;1.00;;;;;;;22.72;40.30;99977.25;10382982;28;20053;-72
2022/08/21 22:01:10;;;;;;;4.25;0.90;;;;;;;22.68;40.80;99984.97;10386331;28;20047;-71
2022/08/21 22:06:21;;;;;;;4.03;1.10;;;;;;;22.75;40.34;99984.97;10386969;28;20578;-72
2022/08/21 22:11:32;;;;;;;2.00;0.95;;;;;;;22.59;39.92;99987.06;10391296;28;20053;-75
2022/08/21 22:16:35;;;;;;;1.98;1.02;;;;;;;22.45;42.19;99979.97;10395035;28;20041;-73
2022/08/21 22:21:41;;;;;;;1.80;0.90;;;;;;;22.55;41.11;99985.81;10395395;28;20419;-73
2022/08/21 22:26:49;;;;;;;1.42;0.70;;;;;;;22.58;41.50;99996.25;10393306;28;20080;-74
2022/08/21 22:32:09;;;;;;;1.90;0.90;;;;;;;22.46;41.99;99995.19;10390725;28;20044;-73
2022/08/21 22:37:11;;;;;;;2.13;0.88;;;;;;;22.43;41.90;99990.19;10395943;28;20136;-74
2022/08/21 22:42:20;;;;;;;3.20;0.80;;;;;;;22.40;41.72;99998.75;10394842;28;20420;-74
2022/08/21 22:47:29;;;;;;;2.47;0.70;;;;;;;22.39;42.51;99991.66;10394465;28;20131;-73
2022/08/21 22:52:36;;;;;;;2.20;0.60;;;;;;;22.30;41.51;99998.28;10395994;28;20040;-73
2022/08/21 22:57:38;;;;;;;2.92;0.98;;;;;;;22.24;42.67;100002.66;10391183;28;20258;-71
2022/08/21 23:03:07;;;;;;;2.10;1.00;;;;;;;22.33;42.46;100009.56;10388020;28;20151;-73
2022/08/21 23:08:36;;;;;;;2.60;0.95;;;;;;;22.32;42.24;100001.66;10393632;28;20714;-72
2022/08/21 23:13:44;;;;;;;2.13;0.73;;;;;;;22.34;42.77;100004.97;10387074;28;20156;-74
2022/08/21 23:19:10;;;;;;;3.00;0.90;;;;;;;22.32;42.37;99996.22;10392456;28;20049;-73
2022/08/21 23:24:49;;;;;;;2.70;0.95;;;;;;;22.27;43.12;99999.53;10389672;28;20156;-73
2022/08/21 23:29:50;;;;;;;2.65;0.90;;;;;;;22.27;42.68;100001.41;10375975;28;20515;-73
2022/08/21 23:37:47;;;;;;;1.15;0.70;;;;;;;22.21;43.41;100003.06;10396152;28;20049;-72
2022/08/21 23:40:56;;;;;;;2.53;0.68;;;;;;;22.10;42.98;99999.09;10386216;28;20747;-73